createdAt,value
2022-10-18T00:01:09.754Z,16.49
2022-10-18T00:06:16.442Z,16.44
2022-10-18T00:08:44.718Z,16.42
2022-10-18T00:11:13.219Z,16.40
2022-10-18T00:13:41.761Z,16.39
2022-10-18T00:16:15.399Z,16.38
2022-10-18T00:18:45.511Z,16.37
2022-10-18T00:21:21.092Z,16.35
2022-10-18T00:23:50.789Z,16.32
2022-10-18T00:26:28.261Z,16.26
2022-10-18T00:29:00.622Z,16.23
2022-10-18T00:31:33.710Z,16.19
2022-10-18T00:34:06.127Z,16.16
2022-10-18T00:36:34.976Z,16.14
2022-10-18T00:39:06.229Z,16.10
2022-10-18T00:41:37.979Z,16.09
2022-10-18T00:44:12.401Z,16.07
2022-10-18T00:46:47.208Z,16.06
2022-10-18T00:49:37.006Z,16.04
2022-10-18T00:52:13.391Z,16.04
2022-10-18T00:54:44.353Z,16.03
2022-10-18T00:57:14.159Z,16.04
2022-10-18T00:59:43.679Z,16.02
2022-10-18T01:02:14.972Z,16.01
2022-10-18T01:04:45.177Z,15.99
2022-10-18T01:07:25.927Z,15.96
2022-10-18T01:10:26.891Z,15.93
2022-10-18T01:13:25.603Z,15.89
2022-10-18T01:16:42.597Z,15.81
2022-10-18T01:20:02.970Z,15.73
2022-10-18T01:22:43.348Z,15.65
2022-10-18T01:25:39.237Z,15.60
2022-10-18T01:28:47.902Z,15.53
2022-10-18T01:31:22.923Z,15.44
2022-10-18T01:36:45.194Z,15.29
2022-10-18T01:39:28.163Z,15.21
2022-10-18T01:41:59.623Z,15.13
2022-10-18T01:44:31.999Z,15.07
2022-10-18T01:47:01.408Z,15.00
2022-10-18T01:49:29.856Z,14.94
2022-10-18T01:51:58.072Z,14.89
2022-10-18T01:54:34.764Z,14.83
2022-10-18T01:57:42.770Z,14.77
2022-10-18T02:00:36.654Z,14.68
2022-10-18T02:03:28.322Z,14.61
2022-10-18T02:06:27.106Z,14.52
2022-10-18T02:09:09.589Z,14.44
2022-10-18T02:11:41.460Z,14.40
2022-10-18T02:14:13.165Z,14.37
2022-10-18T02:16:57.778Z,14.35
2022-10-18T02:19:42.581Z,14.32
2022-10-18T02:22:14.976Z,14.29
2022-10-18T02:24:51.260Z,14.26
2022-10-18T02:27:19.890Z,14.22
2022-10-18T02:29:48.995Z,14.19
2022-10-18T02:32:38.529Z,14.17
2022-10-18T02:35:22.161Z,14.14
2022-10-18T02:37:52.774Z,14.10
2022-10-18T02:40:21.431Z,14.06
2022-10-18T02:42:55.704Z,14.02
2022-10-18T02:45:25.508Z,13.97
2022-10-18T02:47:53.867Z,13.90
2022-10-18T02:50:22.161Z,13.84
2022-10-18T02:52:50.391Z,13.78
2022-10-18T02:55:18.689Z,13.73
2022-10-18T02:57:46.915Z,13.68
2022-10-18T03:00:15.807Z,13.67
2022-10-18T03:02:44.239Z,13.64
2022-10-18T03:05:12.454Z,13.59
2022-10-18T03:07:40.677Z,13.55
2022-10-18T03:10:09.268Z,13.52
2022-10-18T03:12:37.462Z,13.50
2022-10-18T03:15:06.235Z,13.48
2022-10-18T03:17:34.722Z,13.47
2022-10-18T03:20:03.235Z,13.45
2022-10-18T03:22:31.519Z,13.41
2022-10-18T03:24:59.764Z,13.38
2022-10-18T03:27:28.013Z,13.34
2022-10-18T03:29:56.664Z,13.32
2022-10-18T03:32:24.987Z,13.28
2022-10-18T03:34:53.209Z,13.24
2022-10-18T03:37:22.303Z,13.21
2022-10-18T03:39:50.518Z,13.18
2022-10-18T03:42:18.734Z,13.15
2022-10-18T03:44:47.128Z,13.12
2022-10-18T03:47:15.360Z,13.09
2022-10-18T03:49:43.571Z,13.05
2022-10-18T03:52:11.780Z,13.01
2022-10-18T03:54:40.009Z,12.97
2022-10-18T03:57:08.187Z,12.94
2022-10-18T03:59:36.495Z,12.91
2022-10-18T04:02:05.059Z,12.87
2022-10-18T04:04:33.350Z,12.84
2022-10-18T04:07:01.583Z,12.80
2022-10-18T04:09:29.763Z,12.77
2022-10-18T04:11:57.980Z,12.73
2022-10-18T04:14:26.525Z,12.69
2022-10-18T04:16:55.198Z,12.65
2022-10-18T04:19:23.797Z,12.63
2022-10-18T04:21:52.194Z,12.59
2022-10-18T04:24:20.628Z,12.56
2022-10-18T04:26:49.192Z,12.52
2022-10-18T04:29:17.535Z,12.48
2022-10-18T04:31:45.934Z,12.44
2022-10-18T04:34:14.609Z,12.41
2022-10-18T04:36:42.824Z,12.38
2022-10-18T04:39:11.080Z,12.34
2022-10-18T04:41:39.879Z,12.31
2022-10-18T04:44:08.640Z,12.27
2022-10-18T04:46:38.085Z,12.23
2022-10-18T04:49:06.611Z,12.21
2022-10-18T04:51:35.753Z,12.19
2022-10-18T04:54:05.049Z,12.16
2022-10-18T04:59:18.687Z,12.09
2022-10-18T05:01:47.570Z,12.07
2022-10-18T05:04:16.265Z,12.05
2022-10-18T05:06:45.214Z,12.03
2022-10-18T05:09:19.101Z,12.01
2022-10-18T05:11:48.248Z,12.00
2022-10-18T05:14:17.537Z,11.99
2022-10-18T05:16:45.960Z,11.98
2022-10-18T05:19:14.800Z,11.96
2022-10-18T05:21:43.716Z,11.94
2022-10-18T05:24:13.338Z,11.91
2022-10-18T05:26:42.533Z,11.87
2022-10-18T05:29:14.110Z,11.84
2022-10-18T05:31:42.549Z,11.82
2022-10-18T05:34:13.984Z,11.80
2022-10-18T05:36:46.044Z,11.78
2022-10-18T05:39:14.713Z,11.75
2022-10-18T05:41:43.399Z,11.74
2022-10-18T05:44:15.397Z,11.74
2022-10-18T05:46:44.685Z,11.74
2022-10-18T05:49:13.574Z,11.75
2022-10-18T05:51:41.880Z,11.78
2022-10-18T05:54:14.246Z,11.80
2022-10-18T05:56:44.964Z,11.82
2022-10-18T05:59:13.990Z,11.86
2022-10-18T06:01:43.072Z,11.89
2022-10-18T06:04:11.926Z,11.92
2022-10-18T06:06:40.274Z,11.97
2022-10-18T06:09:09.081Z,12.01
2022-10-18T06:11:37.416Z,12.05
2022-10-18T06:14:08.222Z,12.10
2022-10-18T06:19:10.208Z,12.21
2022-10-18T06:21:38.364Z,12.27
2022-10-18T06:24:06.847Z,12.34
2022-10-18T06:26:35.209Z,12.42
2022-10-18T06:29:03.620Z,12.50
2022-10-18T06:31:31.914Z,12.58
2022-10-18T06:34:00.975Z,12.67
2022-10-18T06:36:29.296Z,12.76
2022-10-18T06:38:57.741Z,12.87
2022-10-18T06:41:26.412Z,12.98
2022-10-18T06:43:57.511Z,13.09
2022-10-18T06:46:26.465Z,13.20
2022-10-18T06:48:54.672Z,13.30
2022-10-18T06:51:22.843Z,13.42
2022-10-18T06:53:59.665Z,13.53
2022-10-18T06:56:35.362Z,13.67
2022-10-18T06:59:04.623Z,13.79
2022-10-18T07:01:33.179Z,13.93
2022-10-18T07:04:01.602Z,14.06
2022-10-18T07:06:29.871Z,14.19
2022-10-18T07:08:58.236Z,14.33
2022-10-18T07:11:26.934Z,14.46
2022-10-18T07:14:02.996Z,14.59
2022-10-18T07:16:33.347Z,14.74
2022-10-18T07:19:02.056Z,14.86
2022-10-18T07:21:30.564Z,14.98
2022-10-18T07:23:58.828Z,15.08
2022-10-18T07:26:33.291Z,15.17
2022-10-18T07:29:09.543Z,15.28
2022-10-18T07:31:38.783Z,15.39
2022-10-18T07:34:11.581Z,15.50
2022-10-18T07:36:40.652Z,15.61
2022-10-18T07:39:08.982Z,15.70
2022-10-18T07:41:37.479Z,15.80
2022-10-18T07:44:05.839Z,15.90
2022-10-18T07:46:34.173Z,16.01
2022-10-18T07:49:02.502Z,16.13
2022-10-18T07:51:32.795Z,16.23
2022-10-18T07:54:01.023Z,16.36
2022-10-18T07:56:29.332Z,16.46
2022-10-18T07:58:57.722Z,16.57
2022-10-18T08:01:26.329Z,16.68
2022-10-18T08:03:54.724Z,16.82
2022-10-18T08:06:23.477Z,16.93
2022-10-18T08:08:52.325Z,17.04
2022-10-18T08:11:24.622Z,17.16
2022-10-18T08:13:54.370Z,17.30
2022-10-18T08:16:28.619Z,17.43
2022-10-18T08:19:00.139Z,17.58
2022-10-18T08:21:28.547Z,17.74
2022-10-18T08:23:56.740Z,17.88
2022-10-18T08:26:25.187Z,18.01
2022-10-18T08:29:03.624Z,18.12
2022-10-18T08:31:38.021Z,18.27
2022-10-18T08:34:06.218Z,18.41
2022-10-18T08:36:34.457Z,18.59
2022-10-18T08:39:03.273Z,18.76
2022-10-18T08:41:37.255Z,18.94
2022-10-18T08:44:20.651Z,19.11
2022-10-18T08:46:53.041Z,19.25
2022-10-18T08:49:41.780Z,19.43
2022-10-18T08:52:35.977Z,19.65
2022-10-18T08:55:38.652Z,19.84
2022-10-18T08:58:19.927Z,20.04
2022-10-18T09:01:22.382Z,20.18
2022-10-18T09:04:34.472Z,20.33
2022-10-18T09:07:20.703Z,20.53
2022-10-18T09:10:16.021Z,20.68
2022-10-18T09:13:12.366Z,20.87
2022-10-18T09:15:58.592Z,21.08
2022-10-18T09:19:12.717Z,21.33
2022-10-18T09:21:53.462Z,21.66
2022-10-18T09:24:46.039Z,21.98
2022-10-18T09:27:20.571Z,22.30
2022-10-18T09:30:50.561Z,22.64
2022-10-18T09:33:58.320Z,23.03
2022-10-18T09:36:35.567Z,23.38
2022-10-18T09:39:16.421Z,23.61
2022-10-18T09:42:11.693Z,23.80
2022-10-18T09:45:03.261Z,23.99
2022-10-18T09:47:45.558Z,24.26
2022-10-18T09:50:48.839Z,24.53
2022-10-18T09:53:46.051Z,24.74
2022-10-18T09:56:30.539Z,24.86
2022-10-18T09:58:59.512Z,24.87
2022-10-18T10:01:31.631Z,24.86
2022-10-18T10:03:59.831Z,24.91
2022-10-18T10:06:31.113Z,24.90
2022-10-18T10:09:15.390Z,24.83
2022-10-18T10:11:55.412Z,24.74
2022-10-18T10:14:27.559Z,24.69
2022-10-18T10:17:03.523Z,24.60
2022-10-18T10:20:02.075Z,24.66
2022-10-18T10:22:42.223Z,24.89
2022-10-18T10:25:38.090Z,25.08
2022-10-18T10:28:18.366Z,25.42
2022-10-18T10:30:46.593Z,25.80
2022-10-18T10:33:37.661Z,26.15
2022-10-18T10:36:18.522Z,26.34
2022-10-18T10:39:12.610Z,26.28
2022-10-18T10:41:41.558Z,26.11
2022-10-18T10:44:19.710Z,25.96
2022-10-18T10:46:50.307Z,25.80
2022-10-18T10:49:40.584Z,25.76
2022-10-18T10:52:27.996Z,25.68
2022-10-18T10:55:16.709Z,25.57
2022-10-18T10:57:49.943Z,25.52
2022-10-18T11:00:44.371Z,25.52
2022-10-18T11:03:30.070Z,25.44
2022-10-18T11:06:00.833Z,25.33
2022-10-18T11:08:41.506Z,25.19
2022-10-18T11:11:28.441Z,25.14
2022-10-18T11:14:20.983Z,25.27
2022-10-18T11:17:13.984Z,25.53
2022-10-18T11:20:07.527Z,25.79
2022-10-18T11:22:54.010Z,25.87
2022-10-18T11:25:28.576Z,25.84
2022-10-18T11:28:31.203Z,25.75
2022-10-18T11:31:25.025Z,25.60
2022-10-18T11:34:51.543Z,25.38
2022-10-18T11:37:38.647Z,25.18
2022-10-18T11:40:50.730Z,25.00
2022-10-18T11:44:01.743Z,24.85
2022-10-18T11:47:00.684Z,24.72
2022-10-18T11:50:02.242Z,24.64
2022-10-18T11:52:42.723Z,24.62
2022-10-18T11:55:32.944Z,24.54
2022-10-18T11:58:32.083Z,24.59
2022-10-18T12:01:30.831Z,24.82
2022-10-18T12:04:20.250Z,25.15
2022-10-18T12:06:54.559Z,25.26
2022-10-18T12:09:46.167Z,25.59
2022-10-18T12:12:29.794Z,26.10
2022-10-18T12:15:19.944Z,26.43
2022-10-18T12:18:17.362Z,26.70
2022-10-18T12:20:50.061Z,26.96
2022-10-18T12:23:38.478Z,27.15
2022-10-18T12:26:10.562Z,27.07
2022-10-18T12:28:51.739Z,26.86
2022-10-18T12:31:48.196Z,26.65
2022-10-18T12:34:22.602Z,26.40
2022-10-18T12:37:21.415Z,26.25
2022-10-18T12:40:15.541Z,26.01
2022-10-18T12:42:48.067Z,25.71
2022-10-18T12:45:25.793Z,25.47
2022-10-18T12:47:59.427Z,25.23
2022-10-18T12:50:39.755Z,25.03
2022-10-18T12:53:20.273Z,24.79
2022-10-18T12:55:52.395Z,24.60
2022-10-18T12:58:29.439Z,24.41
2022-10-18T13:01:05.104Z,24.24
2022-10-18T13:03:55.730Z,24.12
2022-10-18T13:06:24.461Z,24.00
2022-10-18T13:09:21.025Z,23.93
2022-10-18T13:11:50.157Z,23.87
2022-10-18T13:15:24.799Z,23.84
2022-10-18T13:18:09.342Z,23.86
2022-10-18T13:20:49.643Z,23.90
2022-10-18T13:23:59.383Z,24.06
2022-10-18T13:26:58.206Z,24.26
2022-10-18T13:29:59.736Z,24.34
2022-10-18T13:32:52.496Z,24.32
2022-10-18T13:35:57.812Z,24.23
2022-10-18T13:38:49.561Z,24.12
2022-10-18T13:43:52.956Z,24.01
2022-10-18T13:46:44.580Z,24.25
2022-10-18T13:49:36.769Z,24.41
2022-10-18T13:52:38.423Z,24.41
2022-10-18T13:55:50.871Z,24.31
2022-10-18T13:59:05.649Z,24.17
2022-10-18T14:01:54.002Z,24.00
2022-10-18T14:05:02.084Z,23.83
2022-10-18T14:07:44.727Z,23.63
2022-10-18T14:10:57.414Z,23.47
2022-10-18T14:16:53.199Z,23.14
2022-10-18T14:19:54.406Z,22.98
2022-10-18T14:22:35.553Z,22.76
2022-10-18T14:25:18.168Z,22.51
2022-10-18T14:27:50.871Z,22.28
2022-10-18T14:30:35.119Z,22.04
2022-10-18T14:33:04.134Z,21.80
2022-10-18T14:35:35.303Z,21.60
2022-10-18T14:38:03.634Z,21.43
2022-10-18T14:40:40.778Z,21.29
2022-10-18T14:43:08.948Z,21.11
2022-10-18T14:45:37.233Z,20.94
2022-10-18T14:48:26.648Z,20.73
2022-10-18T14:51:00.559Z,20.37
2022-10-18T15:07:03.701Z,19.47
2022-10-18T15:09:35.005Z,18.90
2022-10-18T15:12:07.083Z,18.66
2022-10-18T15:14:36.815Z,18.39
2022-10-18T15:17:20.574Z,18.14
2022-10-18T15:20:05.912Z,17.88
2022-10-18T15:22:34.813Z,17.66
2022-10-18T15:25:05.856Z,17.49
2022-10-18T15:27:38.436Z,17.36
2022-10-18T15:30:17.929Z,17.21
2022-10-18T15:32:55.773Z,17.09
2022-10-18T15:35:29.210Z,16.98
2022-10-18T15:38:03.581Z,16.88
2022-10-18T15:40:37.153Z,16.77
2022-10-18T15:43:23.602Z,16.66
2022-10-18T15:46:00.115Z,16.55
2022-10-18T15:48:35.621Z,16.42
2022-10-18T15:51:28.881Z,16.28
2022-10-18T15:53:57.196Z,16.14
2022-10-18T15:56:34.058Z,16.03
2022-10-18T15:59:22.354Z,15.91
2022-10-18T16:01:50.897Z,15.80
2022-10-18T16:04:23.285Z,15.71
2022-10-18T16:06:54.214Z,15.64
2022-10-18T16:09:25.643Z,15.58
2022-10-18T16:12:00.759Z,15.52
2022-10-18T16:14:31.924Z,15.50
2022-10-18T16:17:06.419Z,15.47
2022-10-18T16:19:34.743Z,15.44
2022-10-18T16:22:06.619Z,15.40
2022-10-18T16:24:35.343Z,15.37
2022-10-18T16:27:04.862Z,15.37
2022-10-18T16:29:33.516Z,15.37
2022-10-18T16:32:01.932Z,15.36
2022-10-18T16:34:32.159Z,15.34
2022-10-18T16:37:00.391Z,15.32
2022-10-18T16:39:32.087Z,15.30
2022-10-18T16:42:00.730Z,15.27
2022-10-18T16:44:28.920Z,15.24
2022-10-18T16:46:57.125Z,15.22
2022-10-18T16:49:26.830Z,15.19
2022-10-18T16:51:55.484Z,15.16
2022-10-18T16:54:23.751Z,15.14
2022-10-18T16:56:52.550Z,15.10
2022-10-18T16:59:27.234Z,15.06
2022-10-18T17:01:55.862Z,15.02
2022-10-18T17:04:24.337Z,14.99
2022-10-18T17:06:57.182Z,14.97
2022-10-18T17:09:25.749Z,14.95
2022-10-18T17:11:53.987Z,14.94
2022-10-18T17:14:22.799Z,14.94
2022-10-18T17:16:54.722Z,14.94
2022-10-18T17:19:25.532Z,14.94
2022-10-18T17:21:53.714Z,14.93
2022-10-18T17:24:21.896Z,14.93
2022-10-18T17:26:50.086Z,14.93
2022-10-18T17:29:18.365Z,14.92
2022-10-18T17:31:46.536Z,14.92
2022-10-18T17:34:21.239Z,14.91
2022-10-18T17:36:49.824Z,14.91
2022-10-18T17:39:18.107Z,14.90
2022-10-18T17:41:46.328Z,14.90
2022-10-18T17:44:14.529Z,14.89
2022-10-18T17:46:42.723Z,14.89
2022-10-18T17:49:10.963Z,14.89
2022-10-18T17:51:40.602Z,14.87
2022-10-18T17:54:09.685Z,14.87
2022-10-18T17:56:40.428Z,14.85
2022-10-18T17:59:09.245Z,14.84
2022-10-18T18:01:37.529Z,14.83
2022-10-18T18:04:06.349Z,14.82
2022-10-18T18:06:36.964Z,14.82
2022-10-18T18:09:16.770Z,14.83
2022-10-18T18:11:49.875Z,14.83
2022-10-18T18:14:18.346Z,14.84
2022-10-18T18:16:47.692Z,14.83
2022-10-18T18:19:19.067Z,14.82
2022-10-18T18:21:47.380Z,14.82
2022-10-18T18:24:17.127Z,14.80
2022-10-18T18:26:45.347Z,14.78
2022-10-18T18:29:13.568Z,14.77
2022-10-18T18:31:43.720Z,14.76
2022-10-18T18:34:13.190Z,14.74
2022-10-18T18:36:45.090Z,14.72
2022-10-18T18:39:29.665Z,14.70
2022-10-18T18:41:57.886Z,14.69
2022-10-18T18:44:26.191Z,14.67
2022-10-18T18:49:04.253Z,14.67
2022-10-18T18:51:33.364Z,14.65
2022-10-18T18:54:01.867Z,14.64
2022-10-18T18:56:30.164Z,14.62
2022-10-18T18:58:59.527Z,14.60
2022-10-18T19:01:33.539Z,14.58
2022-10-18T19:04:02.367Z,14.56
2022-10-18T19:06:36.752Z,14.54
2022-10-18T19:09:22.234Z,14.55
2022-10-18T19:11:53.209Z,14.55
2022-10-18T19:14:24.917Z,14.55
2022-10-18T19:16:58.765Z,14.54
2022-10-18T19:19:30.566Z,14.55
2022-10-18T19:22:03.677Z,14.57
2022-10-18T19:24:32.142Z,14.58
2022-10-18T19:27:05.293Z,14.60
2022-10-18T19:29:39.976Z,14.61
2022-10-18T19:32:15.098Z,14.62
2022-10-18T19:34:45.904Z,14.63
2022-10-18T19:37:17.728Z,14.64
2022-10-18T19:39:46.241Z,14.64
2022-10-18T19:42:21.124Z,14.65
2022-10-18T19:44:54.471Z,14.66
2022-10-18T19:47:22.668Z,14.67
2022-10-18T19:49:52.709Z,14.67
2022-10-18T19:52:20.936Z,14.67
2022-10-18T19:54:49.312Z,14.68
2022-10-18T19:57:17.631Z,14.69
2022-10-18T19:59:45.939Z,14.69
2022-10-18T20:02:15.189Z,14.69
2022-10-18T20:04:43.443Z,14.70
2022-10-18T20:07:11.594Z,14.69
2022-10-18T20:09:39.968Z,14.68
2022-10-18T20:12:08.435Z,14.67
2022-10-18T20:14:36.635Z,14.67
2022-10-18T20:17:06.037Z,14.66
2022-10-18T20:19:34.238Z,14.64
2022-10-18T20:22:02.422Z,14.63
2022-10-18T20:24:30.651Z,14.60
2022-10-18T20:26:58.845Z,14.57
2022-10-18T20:29:27.132Z,14.56
2022-10-18T20:31:55.787Z,14.55
2022-10-18T20:34:26.218Z,14.54
2022-10-18T20:36:55.414Z,14.54
2022-10-18T20:39:24.284Z,14.53
2022-10-18T20:41:52.530Z,14.54
2022-10-18T20:44:22.596Z,14.54
2022-10-18T20:46:50.791Z,14.55
2022-10-18T20:49:19.424Z,14.55
2022-10-18T20:51:47.611Z,14.55
2022-10-18T20:54:16.066Z,14.54
2022-10-18T20:56:44.492Z,14.54
2022-10-18T20:59:13.747Z,14.54
2022-10-18T21:01:42.164Z,14.53
2022-10-18T21:04:10.867Z,14.53
2022-10-18T21:06:44.164Z,14.53
2022-10-18T21:09:18.882Z,14.54
2022-10-18T21:11:51.160Z,14.53
2022-10-18T21:14:22.903Z,14.54
2022-10-18T21:16:52.923Z,14.55
2022-10-18T21:19:25.477Z,14.57
2022-10-18T21:21:58.800Z,14.57
2022-10-18T21:24:27.493Z,14.60
2022-10-18T21:26:56.698Z,14.61
2022-10-18T21:29:25.005Z,14.63
2022-10-18T21:31:55.797Z,14.64
2022-10-18T21:34:24.043Z,14.65
2022-10-18T21:36:52.283Z,14.65
2022-10-18T21:41:52.545Z,14.66
2022-10-18T21:44:20.965Z,14.67
2022-10-18T21:46:49.267Z,14.67
2022-10-18T21:49:17.801Z,14.67
2022-10-18T21:51:46.080Z,14.68
2022-10-18T21:54:16.496Z,14.67
2022-10-18T21:56:44.843Z,14.67
2022-10-18T21:59:14.063Z,14.67
2022-10-18T22:01:44.201Z,14.66
2022-10-18T22:04:22.723Z,14.66
2022-10-18T22:06:52.076Z,14.66
2022-10-18T22:09:22.028Z,14.65
2022-10-18T22:11:53.506Z,14.65
2022-10-18T22:14:22.783Z,14.64
2022-10-18T22:16:51.144Z,14.63
2022-10-18T22:19:20.375Z,14.63
2022-10-18T22:21:49.018Z,14.61
2022-10-18T22:24:17.241Z,14.59
2022-10-18T22:26:46.816Z,14.56
2022-10-18T22:29:19.347Z,14.54
2022-10-18T22:31:51.938Z,14.52
2022-10-18T22:34:23.584Z,14.50
2022-10-18T22:36:51.737Z,14.48
2022-10-18T22:39:20.563Z,14.46
2022-10-18T22:41:54.270Z,14.44
2022-10-18T22:44:23.089Z,14.43
2022-10-18T22:46:51.317Z,14.40
2022-10-18T22:49:19.543Z,14.38
2022-10-18T22:51:47.710Z,14.36
2022-10-18T22:54:16.137Z,14.35
2022-10-18T22:56:44.397Z,14.33
2022-10-18T22:59:12.600Z,14.32
2022-10-18T23:01:40.765Z,14.30
2022-10-18T23:04:10.268Z,14.31
2022-10-18T23:06:39.895Z,14.31
2022-10-18T23:09:10.971Z,14.28
2022-10-18T23:11:39.198Z,14.27
2022-10-18T23:14:07.528Z,14.25
2022-10-18T23:16:36.285Z,14.22
2022-10-18T23:19:05.047Z,14.20
2022-10-18T23:21:34.691Z,14.19
2022-10-18T23:24:03.518Z,14.18
2022-10-18T23:26:32.479Z,14.15
2022-10-18T23:29:00.910Z,14.13
2022-10-18T23:31:32.812Z,14.09
2022-10-18T23:34:04.690Z,14.05
2022-10-18T23:36:34.042Z,14.02
2022-10-18T23:39:04.398Z,13.99
2022-10-18T23:41:33.158Z,13.97
2022-10-18T23:44:02.553Z,13.95
2022-10-18T23:46:30.804Z,13.90
2022-10-18T23:48:59.055Z,13.86
2022-10-18T23:51:27.245Z,13.80
2022-10-18T23:53:55.452Z,13.74
2022-10-18T23:56:24.059Z,13.67
2022-10-18T23:58:52.274Z,13.62
